Terminal Aerodrome Forecast
Issued by NWS

Home | Current Version | Previous Version | Text Only | Print | Product List | Glossary On
Versions: 1 2 3 4 5 6 7 8 9 10 11 12 13 14 15 16 17 18 19 20 21 22 23 24 25 26 27 28 29
854
FTUS41 KOKX 090535
TAFSWF
TAF
KSWF 090535Z 0906/1012 27010KT P6SM SKC
     FM091400 31018G26KT P6SM SCT040
     FM091700 29022G30KT P6SM BKN040
     FM100300 30007G15KT P6SM BKN120=

USA.gov is the U.S. government's official web portal to all federal, state and local government web resources and services.